createdAt,value
2019-05-12T00:00:48.394Z,5.63
2019-05-12T00:03:19.234Z,5.77
2019-05-12T00:19:58.840Z,5.27
2019-05-12T00:25:23.071Z,6.40
2019-05-12T00:30:58.057Z,6.60
2019-05-12T00:36:30.633Z,7.17
2019-05-12T00:39:00.927Z,6.73
2019-05-12T00:41:50.623Z,6.70
2019-05-12T00:44:39.927Z,7.17
2019-05-12T00:47:29.571Z,6.83
2019-05-12T00:49:59.875Z,7.73
2019-05-12T00:52:30.199Z,7.97
2019-05-12T00:55:00.562Z,7.43
2019-05-12T00:57:30.926Z,8.60
2019-05-12T01:00:01.324Z,9.90
2019-05-12T01:02:31.988Z,9.27
2019-05-12T01:05:02.409Z,8.03
2019-05-12T01:07:32.756Z,9.30
2019-05-12T01:10:22.089Z,9.70
2019-05-12T01:12:52.686Z,8.77
2019-05-12T01:15:23.030Z,10.87
2019-05-12T01:17:53.688Z,10.07
2019-05-12T01:20:24.949Z,10.33
2019-05-12T01:22:57.688Z,10.53
2019-05-12T01:25:39.345Z,10.83
2019-05-12T01:28:48.781Z,11.10
2019-05-12T01:31:45.683Z,11.30
2019-05-12T01:34:38.274Z,11.17
2019-05-12T01:37:27.975Z,11.93
2019-05-12T01:40:00.254Z,11.30
2019-05-12T01:42:31.915Z,11.80
2019-05-12T01:45:02.306Z,12.10
2019-05-12T01:47:32.588Z,11.67
2019-05-12T01:50:02.939Z,12.83
2019-05-12T01:52:34.755Z,12.63
2019-05-12T01:55:24.173Z,13.20
2019-05-12T01:58:14.759Z,12.20
2019-05-12T02:01:04.230Z,11.87
2019-05-12T02:03:53.804Z,12.67
2019-05-12T02:06:43.101Z,12.00
2019-05-12T02:09:34.357Z,13.33
2019-05-12T02:12:05.006Z,12.97
2019-05-12T02:17:28.197Z,13.17
2019-05-12T02:19:58.723Z,14.07
2019-05-12T02:22:30.862Z,14.17
2019-05-12T02:25:01.237Z,14.10
2019-05-12T02:27:50.807Z,14.27
2019-05-12T02:30:41.899Z,14.97
2019-05-12T02:33:34.791Z,15.07
2019-05-12T02:36:26.129Z,14.13
2019-05-12T02:39:16.353Z,16.33
2019-05-12T02:42:05.825Z,15.47
2019-05-12T02:44:36.269Z,15.57
2019-05-12T02:47:25.844Z,15.17
2019-05-12T02:50:16.519Z,15.80
2019-05-12T02:53:06.522Z,16.20
2019-05-12T02:55:57.668Z,16.20
2019-05-12T02:58:29.553Z,17.43
2019-05-12T03:01:20.190Z,15.97
2019-05-12T03:04:10.833Z,15.97
2019-05-12T03:06:44.611Z,16.87
2019-05-12T03:09:15.464Z,16.90
2019-05-12T03:11:50.368Z,17.20
2019-05-12T03:14:20.685Z,16.40
2019-05-12T03:16:53.957Z,16.93
2019-05-12T03:19:25.261Z,16.23
2019-05-12T03:22:14.817Z,17.60
2019-05-12T03:25:05.931Z,16.60
2019-05-12T03:27:37.387Z,18.17
2019-05-12T03:30:29.676Z,17.90
2019-05-12T03:33:20.423Z,17.70
2019-05-12T03:35:54.921Z,17.20
2019-05-12T03:38:25.030Z,18.07
2019-05-12T03:41:14.896Z,17.70
2019-05-12T03:43:45.397Z,18.23
2019-05-12T03:46:16.336Z,19.03
2019-05-12T03:49:06.027Z,17.53
2019-05-12T03:51:36.390Z,17.83
2019-05-12T03:54:25.738Z,18.43
2019-05-12T03:57:07.363Z,18.00
2019-05-12T03:59:37.746Z,17.53
2019-05-12T04:02:08.513Z,18.50
2019-05-12T04:04:38.896Z,17.20
2019-05-12T04:07:28.522Z,18.73
2019-05-12T04:10:17.863Z,18.00
2019-05-12T04:13:07.880Z,17.97
2019-05-12T04:15:57.225Z,17.67
2019-05-12T04:18:46.783Z,16.90
2019-05-12T04:21:36.138Z,17.07
2019-05-12T04:24:25.797Z,16.23
2019-05-12T04:26:56.081Z,17.17
2019-05-12T04:29:28.706Z,18.10
2019-05-12T04:32:39.634Z,18.20
2019-05-12T04:35:28.959Z,18.60
2019-05-12T04:38:18.576Z,16.90
2019-05-12T04:40:48.902Z,17.40
2019-05-12T04:43:38.508Z,15.43
2019-05-12T04:46:27.799Z,18.13
2019-05-12T04:49:18.767Z,16.47
2019-05-12T04:51:49.059Z,15.37
2019-05-12T04:54:38.657Z,16.93
2019-05-12T04:57:09.343Z,16.97
2019-05-12T04:59:58.957Z,16.13
2019-05-12T05:02:48.264Z,17.10
2019-05-12T05:05:18.627Z,15.57
2019-05-12T05:08:08.045Z,15.80
2019-05-12T05:10:57.411Z,15.07
2019-05-12T05:13:46.997Z,15.23
2019-05-12T05:16:36.576Z,14.03
2019-05-12T05:19:26.168Z,14.50
2019-05-12T05:21:56.481Z,14.23
2019-05-12T05:24:27.716Z,15.07
2019-05-12T05:26:58.042Z,14.37
2019-05-12T05:29:47.372Z,15.70
2019-05-12T05:32:17.755Z,15.63
2019-05-12T05:35:08.748Z,15.17
2019-05-12T05:37:58.069Z,15.83
2019-05-12T05:40:47.715Z,15.50
2019-05-12T05:43:37.092Z,15.73
2019-05-12T05:46:26.661Z,14.77
2019-05-12T05:49:16.021Z,14.27
2019-05-12T05:52:06.008Z,13.57
2019-05-12T05:54:55.345Z,13.53
2019-05-12T05:58:08.568Z,13.33
2019-05-12T06:00:39.445Z,13.33
2019-05-12T06:03:30.762Z,15.03
2019-05-12T06:06:20.233Z,14.83
2019-05-12T06:09:10.918Z,13.67
2019-05-12T06:12:05.265Z,14.10
2019-05-12T06:14:34.252Z,13.03
2019-05-12T06:17:23.664Z,13.97
2019-05-12T06:20:13.671Z,12.80
2019-05-12T06:23:04.298Z,12.63
2019-05-12T06:25:46.404Z,13.17
2019-05-12T06:28:31.061Z,11.80
2019-05-12T06:31:19.070Z,11.70
2019-05-12T06:34:15.206Z,12.13
2019-05-12T06:37:05.108Z,12.60
2019-05-12T06:39:34.362Z,11.30
2019-05-12T06:42:12.375Z,10.77
2019-05-12T06:44:39.286Z,11.87
2019-05-12T06:47:28.586Z,9.90
2019-05-12T06:50:18.186Z,9.90
2019-05-12T06:53:07.732Z,10.40
2019-05-12T06:55:39.450Z,10.67
2019-05-12T07:01:39.076Z,10.03
2019-05-12T07:04:28.405Z,9.47
2019-05-12T07:07:00.671Z,9.73
2019-05-12T07:10:15.242Z,9.57
2019-05-12T07:13:05.451Z,9.80
2019-05-12T07:15:54.466Z,10.40
2019-05-12T07:18:43.841Z,10.00
2019-05-12T07:21:24.891Z,9.80
2019-05-12T07:24:14.214Z,10.27
2019-05-12T07:26:47.959Z,9.07
2019-05-12T07:29:17.254Z,8.43
2019-05-12T07:32:34.388Z,8.63
2019-05-12T07:35:05.082Z,8.07
2019-05-12T07:37:56.770Z,7.77
2019-05-12T07:40:30.047Z,6.97
2019-05-12T07:43:33.829Z,8.07
2019-05-12T07:48:58.980Z,7.70
2019-05-12T07:51:38.284Z,7.77
2019-05-12T07:54:04.049Z,7.97
2019-05-12T07:56:54.038Z,7.07
2019-05-12T07:59:26.633Z,6.70
2019-05-12T08:01:58.898Z,6.37
2019-05-12T08:04:48.424Z,6.30
2019-05-12T08:07:19.867Z,5.67
2019-05-12T08:09:54.464Z,6.00
2019-05-12T08:12:30.308Z,6.97
2019-05-12T08:15:19.636Z,6.53
2019-05-12T08:20:43.560Z,5.87
2019-05-12T08:23:14.294Z,5.93
2019-05-12T08:25:44.953Z,5.90
2019-05-12T08:28:34.679Z,5.80
2019-05-12T08:30:57.339Z,6.27
2019-05-12T08:33:34.760Z,5.77
2019-05-12T08:36:24.998Z,5.57
2019-05-12T08:38:57.420Z,5.93
2019-05-12T08:41:29.167Z,5.37
2019-05-12T08:44:24.827Z,5.03
2019-05-12T08:47:12.795Z,6.50
2019-05-12T08:49:51.151Z,5.50
2019-05-12T08:52:15.870Z,5.73
2019-05-12T08:55:05.557Z,5.20
2019-05-12T08:58:00.758Z,4.90
2019-05-12T09:00:54.863Z,4.43
2019-05-12T09:03:30.099Z,4.63
2019-05-12T09:06:19.694Z,4.77
2019-05-12T09:08:49.638Z,4.30
2019-05-12T09:11:20.062Z,4.03
2019-05-12T09:14:15.572Z,4.00
2019-05-12T09:17:07.492Z,4.00
2019-05-12T09:20:13.488Z,3.50
2019-05-12T09:22:52.715Z,3.90
2019-05-12T09:25:25.750Z,3.67
2019-05-12T09:27:57.032Z,4.43
2019-05-12T09:30:49.532Z,4.47
2019-05-12T09:34:17.171Z,3.83
2019-05-12T09:37:06.808Z,6.33
2019-05-12T09:39:42.849Z,26.43
2019-05-12T09:42:33.404Z,19.83
2019-05-12T09:45:10.123Z,4.33
2019-05-12T09:48:39.025Z,12.10
2019-05-12T09:51:08.003Z,3.83
2019-05-12T09:53:42.744Z,4.10
2019-05-12T09:56:14.223Z,3.80
2019-05-12T09:59:01.831Z,3.50
2019-05-12T10:01:37.408Z,3.93
2019-05-12T10:04:03.458Z,3.90
2019-05-12T10:06:35.437Z,3.50
2019-05-12T10:09:24.917Z,3.53
2019-05-12T10:12:00.856Z,3.73
2019-05-12T10:14:48.133Z,3.60
2019-05-12T10:17:43.271Z,3.43
2019-05-12T10:26:11.619Z,3.43
2019-05-12T10:29:16.492Z,2.90
2019-05-12T10:31:39.388Z,3.70
2019-05-12T10:34:37.475Z,3.43
2019-05-12T10:37:03.780Z,4.10
2019-05-12T10:40:13.908Z,3.67
2019-05-12T10:42:47.790Z,3.70
2019-05-12T10:45:37.372Z,3.23
2019-05-12T10:48:26.723Z,3.10
2019-05-12T10:51:16.110Z,3.30
2019-05-12T10:53:48.714Z,3.97
2019-05-12T10:59:48.484Z,2.90
2019-05-12T11:02:20.318Z,3.67
2019-05-12T11:05:21.235Z,3.57
2019-05-12T11:08:11.054Z,3.40
2019-05-12T11:10:50.352Z,3.63
2019-05-12T11:13:18.303Z,4.43
2019-05-12T11:15:51.047Z,3.40
2019-05-12T11:18:25.996Z,3.17
2019-05-12T11:21:00.365Z,3.30
2019-05-12T11:23:31.616Z,3.53
2019-05-12T11:26:14.241Z,3.60
2019-05-12T11:28:59.152Z,3.03
2019-05-12T11:31:44.157Z,3.50
2019-05-12T11:37:10.523Z,3.00
2019-05-12T11:39:47.531Z,2.80
2019-05-12T11:42:36.419Z,3.43
2019-05-12T11:45:28.462Z,3.10
2019-05-12T11:48:34.531Z,3.07
2019-05-12T11:51:08.081Z,3.33
2019-05-12T11:54:03.651Z,3.20
2019-05-12T11:56:55.732Z,3.40
2019-05-12T11:59:28.945Z,3.20
2019-05-12T12:01:59.894Z,3.07
2019-05-12T12:04:49.819Z,3.60
2019-05-12T12:07:50.656Z,3.10
2019-05-12T12:10:14.059Z,3.90
2019-05-12T12:13:03.933Z,3.07
2019-05-12T12:19:05.870Z,3.03
2019-05-12T12:21:40.313Z,3.60
2019-05-12T12:24:31.658Z,3.10
2019-05-12T12:27:03.858Z,3.67
2019-05-12T12:29:35.128Z,3.03
2019-05-12T12:32:44.821Z,3.40
2019-05-12T12:38:44.130Z,3.00
2019-05-12T12:41:35.498Z,3.00
2019-05-12T12:47:15.906Z,3.90
2019-05-12T12:50:06.760Z,4.23
2019-05-12T12:53:01.967Z,3.70
2019-05-12T12:55:58.324Z,3.40
2019-05-12T12:58:44.608Z,3.90
2019-05-12T13:01:27.393Z,3.33
2019-05-12T13:04:14.806Z,3.40
2019-05-12T13:07:04.754Z,3.07
2019-05-12T13:10:03.607Z,3.33
2019-05-12T13:12:26.653Z,2.63
2019-05-12T13:18:33.886Z,2.70
2019-05-12T13:21:04.613Z,2.33
2019-05-12T13:23:41.381Z,2.47
2019-05-12T13:26:13.442Z,2.70
2019-05-12T13:28:45.543Z,2.23
2019-05-12T13:31:18.127Z,2.67
2019-05-12T13:37:14.364Z,2.67
2019-05-12T13:39:41.374Z,2.20
2019-05-12T13:42:35.911Z,2.67
2019-05-12T13:45:04.799Z,1.83
2019-05-12T13:47:40.048Z,2.30
2019-05-12T13:50:21.400Z,1.80
2019-05-12T13:53:10.297Z,1.70
2019-05-12T13:55:49.511Z,1.70
2019-05-12T13:58:21.059Z,2.27
2019-05-12T14:01:10.537Z,2.00
2019-05-12T14:06:37.954Z,1.80
2019-05-12T14:09:27.241Z,1.60
2019-05-12T14:12:16.938Z,1.30
2019-05-12T14:14:47.247Z,1.13
2019-05-12T14:17:17.602Z,1.40
2019-05-12T14:20:26.107Z,1.27
2019-05-12T14:22:53.948Z,1.70
2019-05-12T14:25:45.610Z,1.70
2019-05-12T14:28:39.633Z,1.70
2019-05-12T14:31:07.023Z,1.53
2019-05-12T14:33:39.388Z,1.47
2019-05-12T14:36:32.033Z,1.70
2019-05-12T14:39:23.976Z,1.50
2019-05-12T14:42:13.655Z,1.33
2019-05-12T14:45:04.723Z,1.20
2019-05-12T14:47:38.898Z,1.40
2019-05-12T14:50:29.837Z,1.50
2019-05-12T14:53:19.487Z,1.60
2019-05-12T14:56:08.849Z,1.77
2019-05-12T14:59:17.141Z,1.60
2019-05-12T15:01:58.948Z,1.80
2019-05-12T15:05:10.592Z,1.20
2019-05-12T15:07:59.868Z,1.70
2019-05-12T15:10:28.328Z,1.90
2019-05-12T15:12:58.876Z,1.57
2019-05-12T15:15:50.054Z,1.50
2019-05-12T15:18:46.754Z,1.07
2019-05-12T15:24:15.503Z,1.10
2019-05-12T15:26:43.413Z,1.23
2019-05-12T15:35:40.416Z,1.30
2019-05-12T15:38:34.080Z,1.30
2019-05-12T15:41:16.849Z,1.20
2019-05-12T15:43:56.745Z,1.23
2019-05-12T15:46:46.744Z,1.03
2019-05-12T15:49:36.508Z,1.00
2019-05-12T15:52:29.820Z,1.20
2019-05-12T15:55:18.553Z,1.30
2019-05-12T15:58:10.034Z,0.93
2019-05-12T16:01:04.552Z,1.10
2019-05-12T16:07:09.253Z,1.30
2019-05-12T16:10:08.041Z,1.10
2019-05-12T16:13:00.671Z,1.10
2019-05-12T16:18:31.429Z,1.13
2019-05-12T16:24:34.039Z,1.30
2019-05-12T16:27:44.267Z,1.20
2019-05-12T16:30:58.850Z,3.50
2019-05-12T16:33:29.574Z,2.97
2019-05-12T16:39:04.266Z,1.53
2019-05-12T16:41:48.417Z,1.40
2019-05-12T16:44:43.834Z,1.03
2019-05-12T16:47:35.408Z,1.33
2019-05-12T16:50:31.527Z,1.20
2019-05-12T16:56:33.930Z,1.40
2019-05-12T16:59:40.596Z,1.30
2019-05-12T17:02:19.669Z,1.67
2019-05-12T17:05:17.735Z,1.20
2019-05-12T17:07:50.434Z,1.37
2019-05-12T17:10:21.281Z,1.07
2019-05-12T17:13:13.851Z,1.10
2019-05-12T17:16:05.544Z,1.20
2019-05-12T17:19:15.475Z,1.20
2019-05-12T17:22:25.266Z,1.10
2019-05-12T17:25:18.771Z,1.10
2019-05-12T17:28:03.793Z,1.23
2019-05-12T17:31:16.816Z,1.10
2019-05-12T17:33:54.356Z,1.10
2019-05-12T17:36:33.783Z,1.10
2019-05-12T17:39:24.117Z,1.40
2019-05-12T17:41:56.342Z,1.17
2019-05-12T17:44:45.813Z,1.30
2019-05-12T17:47:21.198Z,1.10
2019-05-12T17:50:00.544Z,1.10
2019-05-12T17:52:56.939Z,1.00
2019-05-12T17:55:26.421Z,1.00
2019-05-12T17:58:16.115Z,1.07
2019-05-12T18:00:56.754Z,1.27
2019-05-12T18:06:44.222Z,1.10
2019-05-12T18:12:49.753Z,1.20
2019-05-12T18:15:39.280Z,1.43
2019-05-12T18:18:37.255Z,1.00
2019-05-12T18:21:04.620Z,1.20
2019-05-12T18:23:39.019Z,1.20
2019-05-12T18:26:14.868Z,1.13
2019-05-12T18:28:44.289Z,1.20
2019-05-12T18:31:34.052Z,4.17
2019-05-12T18:34:22.164Z,1.47
2019-05-12T18:37:01.628Z,1.23
2019-05-12T18:39:54.592Z,1.33
2019-05-12T18:43:03.907Z,1.20
2019-05-12T18:46:20.740Z,0.97
2019-05-12T18:49:12.718Z,1.10
2019-05-12T18:51:49.128Z,1.50
2019-05-12T18:54:20.255Z,1.10
2019-05-12T19:03:10.065Z,2.60
2019-05-12T19:06:03.335Z,1.13
2019-05-12T19:08:35.807Z,1.17
2019-05-12T19:11:18.814Z,1.00
2019-05-12T19:20:05.216Z,1.37
2019-05-12T19:22:59.924Z,1.50
2019-05-12T19:26:06.841Z,1.30
2019-05-12T19:28:31.311Z,1.20
2019-05-12T19:31:14.216Z,1.20
2019-05-12T19:36:58.285Z,1.30
2019-05-12T19:39:45.761Z,1.20
2019-05-12T19:49:00.301Z,1.20
2019-05-12T19:51:30.840Z,1.50
2019-05-12T19:54:25.541Z,1.43
2019-05-12T19:56:56.765Z,3.40
2019-05-12T19:59:31.133Z,1.23
2019-05-12T20:02:23.595Z,1.73
2019-05-12T20:05:34.404Z,1.50
2019-05-12T20:08:27.688Z,1.20
2019-05-12T20:11:20.126Z,1.80
2019-05-12T20:14:27.867Z,1.50
2019-05-12T20:17:00.788Z,1.60
2019-05-12T20:19:53.942Z,1.80
2019-05-12T20:25:34.193Z,1.23
2019-05-12T20:28:24.694Z,1.37
2019-05-12T20:34:10.499Z,1.77
2019-05-12T20:36:49.183Z,1.43
2019-05-12T20:39:22.398Z,1.30
2019-05-12T20:42:14.231Z,1.37
2019-05-12T20:44:44.743Z,1.40
2019-05-12T20:47:39.123Z,1.70
2019-05-12T20:50:11.781Z,1.33
2019-05-12T20:53:04.002Z,1.70
2019-05-12T20:55:54.771Z,1.50
2019-05-12T20:58:46.562Z,1.23
2019-05-12T21:04:39.383Z,1.60
2019-05-12T21:10:20.012Z,1.77
2019-05-12T21:12:54.357Z,1.70
2019-05-12T21:15:45.959Z,1.70
2019-05-12T21:18:47.815Z,1.57
2019-05-12T21:21:14.311Z,1.50
2019-05-12T21:23:53.504Z,1.73
2019-05-12T21:26:17.908Z,1.50
2019-05-12T21:28:49.502Z,1.80
2019-05-12T21:31:39.414Z,1.60
2019-05-12T21:37:25.422Z,1.50
2019-05-12T21:41:02.022Z,1.73
2019-05-12T21:42:53.585Z,1.93
2019-05-12T21:45:30.719Z,1.80
2019-05-12T21:47:58.421Z,1.50
2019-05-12T21:50:37.930Z,1.50
2019-05-12T21:53:44.201Z,1.57
2019-05-12T21:59:29.066Z,1.40
2019-05-12T22:05:21.977Z,2.10
2019-05-12T22:07:45.640Z,1.63
2019-05-12T22:10:38.011Z,1.90
2019-05-12T22:16:43.740Z,2.10
2019-05-12T22:19:31.482Z,1.87
2019-05-12T22:22:08.136Z,1.70
2019-05-12T22:24:50.425Z,1.77
2019-05-12T22:27:32.259Z,1.43
2019-05-12T22:30:04.424Z,1.57
2019-05-12T22:32:59.515Z,2.00
2019-05-12T22:36:14.000Z,1.80
2019-05-12T22:38:44.556Z,1.83
2019-05-12T22:41:17.829Z,1.60
2019-05-12T22:43:53.843Z,1.93
2019-05-12T22:46:45.463Z,1.90
2019-05-12T22:49:57.000Z,1.90
2019-05-12T22:52:26.018Z,1.63
2019-05-12T22:54:59.400Z,1.80
2019-05-12T22:57:38.260Z,1.57
2019-05-12T23:02:49.559Z,1.63
2019-05-12T23:06:01.522Z,1.83
2019-05-12T23:08:51.066Z,1.67
2019-05-12T23:11:41.717Z,1.93
2019-05-12T23:14:54.167Z,2.30
2019-05-12T23:17:45.258Z,1.90
2019-05-12T23:20:13.821Z,1.70
2019-05-12T23:23:09.142Z,1.80
2019-05-12T23:26:00.429Z,2.00
2019-05-12T23:31:30.015Z,1.70
2019-05-12T23:37:06.742Z,1.80
2019-05-12T23:39:39.911Z,1.53
2019-05-12T23:42:53.560Z,1.70
2019-05-12T23:45:24.344Z,1.43
2019-05-12T23:47:56.210Z,2.00
2019-05-12T23:50:26.565Z,1.60
2019-05-12T23:52:57.044Z,1.70
2019-05-12T23:55:29.463Z,1.73
2019-05-12T23:58:19.817Z,2.20
